sensor_id;sensor_type;location;lat;lon;timestamp;P1;durP1;ratioP1;P2;durP2;ratioP2
65706;SDS011;52423;43.512;5.220;2023-02-01T00:01:07;10.88;;;4.85;;
65706;SDS011;52423;43.512;5.220;2023-02-01T00:03:33;11.20;;;3.80;;
65706;SDS011;52423;43.512;5.220;2023-02-01T00:05:59;7.00;;;3.72;;
65706;SDS011;52423;43.512;5.220;2023-02-01T00:08:25;9.57;;;4.10;;
65706;SDS011;52423;43.512;5.220;2023-02-01T00:11:00;6.32;;;3.65;;
65706;SDS011;52423;43.512;5.220;2023-02-01T00:13:28;5.22;;;3.17;;
65706;SDS011;52423;43.512;5.220;2023-02-01T00:15:54;8.32;;;3.55;;
65706;SDS011;52423;43.512;5.220;2023-02-01T00:18:20;4.13;;;3.05;;
65706;SDS011;52423;43.512;5.220;2023-02-01T00:20:46;5.38;;;3.60;;
65706;SDS011;52423;43.512;5.220;2023-02-01T00:23:11;8.00;;;3.83;;
65706;SDS011;52423;43.512;5.220;2023-02-01T00:25:37;6.65;;;3.30;;
65706;SDS011;52423;43.512;5.220;2023-02-01T00:28:02;3.63;;;2.65;;
65706;SDS011;52423;43.512;5.220;2023-02-01T00:30:28;6.50;;;3.38;;
65706;SDS011;52423;43.512;5.220;2023-02-01T00:32:53;6.90;;;3.35;;
65706;SDS011;52423;43.512;5.220;2023-02-01T00:35:19;5.65;;;3.47;;
65706;SDS011;52423;43.512;5.220;2023-02-01T00:37:44;2.95;;;2.45;;
65706;SDS011;52423;43.512;5.220;2023-02-01T00:40:10;3.22;;;2.90;;
65706;SDS011;52423;43.512;5.220;2023-02-01T00:42:35;2.55;;;2.22;;
65706;SDS011;52423;43.512;5.220;2023-02-01T00:45:01;3.35;;;2.65;;
65706;SDS011;52423;43.512;5.220;2023-02-01T00:47:26;3.80;;;2.67;;
65706;SDS011;52423;43.512;5.220;2023-02-01T00:49:52;4.10;;;2.95;;
65706;SDS011;52423;43.512;5.220;2023-02-01T00:52:17;4.10;;;3.08;;
65706;SDS011;52423;43.512;5.220;2023-02-01T00:54:43;3.40;;;2.85;;
65706;SDS011;52423;43.512;5.220;2023-02-01T00:57:08;6.10;;;3.38;;
65706;SDS011;52423;43.512;5.220;2023-02-01T00:59:33;5.18;;;3.53;;
65706;SDS011;52423;43.512;5.220;2023-02-01T01:01:59;4.05;;;3.47;;
65706;SDS011;52423;43.512;5.220;2023-02-01T01:04:24;4.50;;;3.55;;
65706;SDS011;52423;43.512;5.220;2023-02-01T01:06:49;5.88;;;3.40;;
65706;SDS011;52423;43.512;5.220;2023-02-01T01:09:15;5.25;;;3.50;;
65706;SDS011;52423;43.512;5.220;2023-02-01T01:11:40;5.35;;;3.33;;
65706;SDS011;52423;43.512;5.220;2023-02-01T01:14:06;6.38;;;4.45;;
65706;SDS011;52423;43.512;5.220;2023-02-01T01:16:34;6.35;;;3.75;;
65706;SDS011;52423;43.512;5.220;2023-02-01T01:19:00;6.85;;;4.80;;
65706;SDS011;52423;43.512;5.220;2023-02-01T01:21:26;6.20;;;4.57;;
65706;SDS011;52423;43.512;5.220;2023-02-01T01:23:52;6.60;;;5.35;;
65706;SDS011;52423;43.512;5.220;2023-02-01T01:26:19;7.00;;;5.10;;
65706;SDS011;52423;43.512;5.220;2023-02-01T01:28:47;8.82;;;5.65;;
65706;SDS011;52423;43.512;5.220;2023-02-01T01:31:13;6.07;;;4.70;;
65706;SDS011;52423;43.512;5.220;2023-02-01T01:33:40;10.75;;;6.00;;
65706;SDS011;52423;43.512;5.220;2023-02-01T01:36:07;9.98;;;5.57;;
65706;SDS011;52423;43.512;5.220;2023-02-01T01:38:36;7.32;;;4.63;;
65706;SDS011;52423;43.512;5.220;2023-02-01T01:41:01;5.80;;;4.40;;
65706;SDS011;52423;43.512;5.220;2023-02-01T01:43:44;5.45;;;3.78;;
65706;SDS011;52423;43.512;5.220;2023-02-01T01:46:19;8.07;;;5.03;;
65706;SDS011;52423;43.512;5.220;2023-02-01T01:48:48;5.13;;;4.13;;
65706;SDS011;52423;43.512;5.220;2023-02-01T01:51:19;7.53;;;3.90;;
65706;SDS011;52423;43.512;5.220;2023-02-01T01:53:57;3.20;;;2.85;;
65706;SDS011;52423;43.512;5.220;2023-02-01T01:56:26;6.35;;;4.68;;
65706;SDS011;52423;43.512;5.220;2023-02-01T01:58:54;4.38;;;3.65;;
65706;SDS011;52423;43.512;5.220;2023-02-01T02:01:20;5.15;;;4.30;;
65706;SDS011;52423;43.512;5.220;2023-02-01T02:03:46;5.90;;;4.30;;
65706;SDS011;52423;43.512;5.220;2023-02-01T02:06:19;5.40;;;4.45;;
65706;SDS011;52423;43.512;5.220;2023-02-01T02:08:47;5.78;;;4.28;;
65706;SDS011;52423;43.512;5.220;2023-02-01T02:11:13;6.45;;;4.18;;
65706;SDS011;52423;43.512;5.220;2023-02-01T02:13:41;4.82;;;3.40;;
65706;SDS011;52423;43.512;5.220;2023-02-01T02:21:56;4.22;;;3.70;;
65706;SDS011;52423;43.512;5.220;2023-02-01T02:46:38;5.95;;;4.07;;
65706;SDS011;52423;43.512;5.220;2023-02-01T02:49:40;4.07;;;3.00;;
65706;SDS011;52423;43.512;5.220;2023-02-01T02:52:31;5.70;;;3.65;;
65706;SDS011;52423;43.512;5.220;2023-02-01T02:55:17;5.60;;;2.90;;
65706;SDS011;52423;43.512;5.220;2023-02-01T02:57:43;6.38;;;3.20;;
65706;SDS011;52423;43.512;5.220;2023-02-01T03:00:29;4.38;;;3.40;;
65706;SDS011;52423;43.512;5.220;2023-02-01T03:03:16;4.18;;;3.45;;
65706;SDS011;52423;43.512;5.220;2023-02-01T03:06:00;4.43;;;3.53;;
65706;SDS011;52423;43.512;5.220;2023-02-01T03:08:29;8.02;;;3.80;;
65706;SDS011;52423;43.512;5.220;2023-02-01T03:21:16;5.78;;;5.13;;
65706;SDS011;52423;43.512;5.220;2023-02-01T03:23:46;7.68;;;5.32;;
65706;SDS011;52423;43.512;5.220;2023-02-01T03:26:14;5.63;;;4.72;;
65706;SDS011;52423;43.512;5.220;2023-02-01T03:28:45;7.25;;;4.72;;
65706;SDS011;52423;43.512;5.220;2023-02-01T03:31:17;13.30;;;4.82;;
65706;SDS011;52423;43.512;5.220;2023-02-01T03:33:43;7.78;;;5.22;;
65706;SDS011;52423;43.512;5.220;2023-02-01T03:36:15;7.15;;;5.30;;
65706;SDS011;52423;43.512;5.220;2023-02-01T03:46:29;7.50;;;4.88;;
65706;SDS011;52423;43.512;5.220;2023-02-01T03:49:00;8.88;;;4.88;;
65706;SDS011;52423;43.512;5.220;2023-02-01T03:51:28;5.78;;;4.78;;
65706;SDS011;52423;43.512;5.220;2023-02-01T03:53:55;8.85;;;5.10;;
65706;SDS011;52423;43.512;5.220;2023-02-01T03:56:22;5.90;;;4.40;;
65706;SDS011;52423;43.512;5.220;2023-02-01T03:58:50;9.55;;;4.68;;
65706;SDS011;52423;43.512;5.220;2023-02-01T04:01:34;4.85;;;4.28;;
65706;SDS011;52423;43.512;5.220;2023-02-01T04:03:59;7.72;;;4.10;;
65706;SDS011;52423;43.512;5.220;2023-02-01T04:06:24;3.88;;;3.30;;
65706;SDS011;52423;43.512;5.220;2023-02-01T04:08:50;7.50;;;3.65;;
65706;SDS011;52423;43.512;5.220;2023-02-01T04:11:16;4.30;;;2.80;;
65706;SDS011;52423;43.512;5.220;2023-02-01T04:13:42;3.20;;;2.90;;
65706;SDS011;52423;43.512;5.220;2023-02-01T04:16:08;5.10;;;3.08;;
65706;SDS011;52423;43.512;5.220;2023-02-01T04:18:33;4.63;;;3.33;;
65706;SDS011;52423;43.512;5.220;2023-02-01T04:20:59;6.20;;;3.00;;
65706;SDS011;52423;43.512;5.220;2023-02-01T04:23:26;3.72;;;3.10;;
65706;SDS011;52423;43.512;5.220;2023-02-01T04:25:51;3.05;;;2.75;;
65706;SDS011;52423;43.512;5.220;2023-02-01T04:28:16;2.70;;;2.50;;
65706;SDS011;52423;43.512;5.220;2023-02-01T04:30:42;3.03;;;2.75;;
65706;SDS011;52423;43.512;5.220;2023-02-01T04:33:07;4.63;;;2.65;;
65706;SDS011;52423;43.512;5.220;2023-02-01T04:35:33;2.35;;;2.15;;
65706;SDS011;52423;43.512;5.220;2023-02-01T04:37:59;2.85;;;2.33;;
65706;SDS011;52423;43.512;5.220;2023-02-01T04:40:24;3.10;;;2.38;;
65706;SDS011;52423;43.512;5.220;2023-02-01T04:42:50;2.85;;;2.60;;
65706;SDS011;52423;43.512;5.220;2023-02-01T04:45:15;2.67;;;1.95;;
65706;SDS011;52423;43.512;5.220;2023-02-01T04:47:41;2.50;;;2.20;;
65706;SDS011;52423;43.512;5.220;2023-02-01T04:50:06;4.00;;;2.53;;
65706;SDS011;52423;43.512;5.220;2023-02-01T04:52:35;5.38;;;3.08;;
65706;SDS011;52423;43.512;5.220;2023-02-01T04:55:01;3.58;;;1.90;;
65706;SDS011;52423;43.512;5.220;2023-02-01T04:57:27;1.30;;;1.20;;
65706;SDS011;52423;43.512;5.220;2023-02-01T04:59:53;1.30;;;1.30;;
65706;SDS011;52423;43.512;5.220;2023-02-01T05:02:18;1.67;;;1.30;;
65706;SDS011;52423;43.512;5.220;2023-02-01T05:04:44;1.65;;;1.45;;
65706;SDS011;52423;43.512;5.220;2023-02-01T05:07:09;1.30;;;1.20;;
65706;SDS011;52423;43.512;5.220;2023-02-01T05:09:34;1.40;;;1.30;;
65706;SDS011;52423;43.512;5.220;2023-02-01T05:12:00;5.47;;;3.17;;
65706;SDS011;52423;43.512;5.220;2023-02-01T05:15:01;9.48;;;6.00;;
65706;SDS011;52423;43.512;5.220;2023-02-01T05:17:26;12.65;;;7.00;;
65706;SDS011;52423;43.512;5.220;2023-02-01T05:19:52;11.70;;;6.13;;
65706;SDS011;52423;43.512;5.220;2023-02-01T05:22:17;8.68;;;5.75;;
65706;SDS011;52423;43.512;5.220;2023-02-01T05:24:43;6.50;;;4.95;;
65706;SDS011;52423;43.512;5.220;2023-02-01T05:27:09;6.72;;;3.55;;
65706;SDS011;52423;43.512;5.220;2023-02-01T05:29:34;9.70;;;4.05;;
65706;SDS011;52423;43.512;5.220;2023-02-01T05:31:59;5.30;;;3.00;;
65706;SDS011;52423;43.512;5.220;2023-02-01T05:34:25;2.28;;;2.08;;
65706;SDS011;52423;43.512;5.220;2023-02-01T05:36:50;1.77;;;1.67;;
65706;SDS011;52423;43.512;5.220;2023-02-01T05:39:16;2.28;;;1.73;;
65706;SDS011;52423;43.512;5.220;2023-02-01T05:41:41;1.42;;;1.33;;
65706;SDS011;52423;43.512;5.220;2023-02-01T05:44:07;2.35;;;1.48;;
65706;SDS011;52423;43.512;5.220;2023-02-01T05:46:33;1.20;;;1.20;;
65706;SDS011;52423;43.512;5.220;2023-02-01T05:48:59;1.88;;;1.30;;
65706;SDS011;52423;43.512;5.220;2023-02-01T05:51:25;1.45;;;1.35;;
65706;SDS011;52423;43.512;5.220;2023-02-01T05:53:50;1.50;;;1.30;;
65706;SDS011;52423;43.512;5.220;2023-02-01T05:56:15;1.90;;;1.50;;
65706;SDS011;52423;43.512;5.220;2023-02-01T05:58:41;1.45;;;1.35;;
65706;SDS011;52423;43.512;5.220;2023-02-01T06:01:06;1.58;;;1.38;;
65706;SDS011;52423;43.512;5.220;2023-02-01T06:03:31;4.97;;;1.30;;
65706;SDS011;52423;43.512;5.220;2023-02-01T06:05:57;1.50;;;1.40;;
65706;SDS011;52423;43.512;5.220;2023-02-01T06:08:22;1.60;;;1.50;;
65706;SDS011;52423;43.512;5.220;2023-02-01T06:10:50;1.45;;;1.27;;
65706;SDS011;52423;43.512;5.220;2023-02-01T06:13:16;1.58;;;1.48;;
65706;SDS011;52423;43.512;5.220;2023-02-01T06:15:42;2.50;;;2.30;;
65706;SDS011;52423;43.512;5.220;2023-02-01T06:18:08;3.50;;;3.20;;
65706;SDS011;52423;43.512;5.220;2023-02-01T06:20:34;3.30;;;2.60;;
65706;SDS011;52423;43.512;5.220;2023-02-01T06:23:00;2.85;;;1.50;;
65706;SDS011;52423;43.512;5.220;2023-02-01T06:25:25;1.80;;;1.70;;
65706;SDS011;52423;43.512;5.220;2023-02-01T06:27:51;1.20;;;1.20;;
65706;SDS011;52423;43.512;5.220;2023-02-01T06:30:16;1.60;;;1.50;;
65706;SDS011;52423;43.512;5.220;2023-02-01T06:32:42;1.50;;;1.40;;
65706;SDS011;52423;43.512;5.220;2023-02-01T06:35:08;1.80;;;1.70;;
65706;SDS011;52423;43.512;5.220;2023-02-01T06:37:40;1.48;;;1.38;;
65706;SDS011;52423;43.512;5.220;2023-02-01T06:40:06;2.78;;;1.75;;
65706;SDS011;52423;43.512;5.220;2023-02-01T06:42:32;1.80;;;1.55;;
65706;SDS011;52423;43.512;5.220;2023-02-01T06:44:58;2.55;;;1.55;;
65706;SDS011;52423;43.512;5.220;2023-02-01T06:47:23;2.70;;;1.60;;
65706;SDS011;52423;43.512;5.220;2023-02-01T06:49:49;2.03;;;1.60;;
65706;SDS011;52423;43.512;5.220;2023-02-01T06:52:14;2.40;;;1.30;;
65706;SDS011;52423;43.512;5.220;2023-02-01T06:54:39;1.60;;;1.40;;
65706;SDS011;52423;43.512;5.220;2023-02-01T06:57:05;2.33;;;1.20;;
65706;SDS011;52423;43.512;5.220;2023-02-01T06:59:30;3.78;;;1.42;;
65706;SDS011;52423;43.512;5.220;2023-02-01T07:01:55;3.00;;;1.70;;
65706;SDS011;52423;43.512;5.220;2023-02-01T07:04:21;1.30;;;1.20;;
65706;SDS011;52423;43.512;5.220;2023-02-01T07:06:46;1.40;;;1.23;;
65706;SDS011;52423;43.512;5.220;2023-02-01T07:09:11;1.50;;;1.40;;
65706;SDS011;52423;43.512;5.220;2023-02-01T07:11:38;1.50;;;1.30;;
65706;SDS011;52423;43.512;5.220;2023-02-01T07:14:08;1.60;;;1.50;;
65706;SDS011;52423;43.512;5.220;2023-02-01T07:16:34;1.58;;;1.40;;
65706;SDS011;52423;43.512;5.220;2023-02-01T07:18:59;1.88;;;1.40;;
65706;SDS011;52423;43.512;5.220;2023-02-01T07:21:25;2.67;;;1.70;;
65706;SDS011;52423;43.512;5.220;2023-02-01T07:23:52;2.70;;;1.58;;
65706;SDS011;52423;43.512;5.220;2023-02-01T07:26:18;1.88;;;1.48;;
65706;SDS011;52423;43.512;5.220;2023-02-01T07:28:44;2.25;;;1.10;;
65706;SDS011;52423;43.512;5.220;2023-02-01T07:31:11;2.50;;;1.50;;
65706;SDS011;52423;43.512;5.220;2023-02-01T07:33:40;2.85;;;1.40;;
65706;SDS011;52423;43.512;5.220;2023-02-01T07:36:07;1.95;;;1.48;;
65706;SDS011;52423;43.512;5.220;2023-02-01T07:38:35;1.58;;;1.48;;
65706;SDS011;52423;43.512;5.220;2023-02-01T07:41:01;2.60;;;1.30;;
65706;SDS011;52423;43.512;5.220;2023-02-01T07:43:28;2.78;;;1.40;;
65706;SDS011;52423;43.512;5.220;2023-02-01T07:45:54;2.78;;;1.52;;
65706;SDS011;52423;43.512;5.220;2023-02-01T07:48:21;1.98;;;1.75;;
65706;SDS011;52423;43.512;5.220;2023-02-01T07:50:47;2.13;;;1.75;;
65706;SDS011;52423;43.512;5.220;2023-02-01T07:53:13;2.10;;;1.75;;
65706;SDS011;52423;43.512;5.220;2023-02-01T07:55:39;3.80;;;2.33;;
65706;SDS011;52423;43.512;5.220;2023-02-01T07:58:04;4.50;;;2.15;;
65706;SDS011;52423;43.512;5.220;2023-02-01T08:00:30;2.13;;;1.50;;
65706;SDS011;52423;43.512;5.220;2023-02-01T08:03:14;1.67;;;1.58;;
65706;SDS011;52423;43.512;5.220;2023-02-01T08:05:39;1.50;;;1.40;;
65706;SDS011;52423;43.512;5.220;2023-02-01T08:08:05;2.78;;;1.23;;
65706;SDS011;52423;43.512;5.220;2023-02-01T08:10:30;1.50;;;1.40;;
65706;SDS011;52423;43.512;5.220;2023-02-01T08:12:59;5.03;;;1.33;;
65706;SDS011;52423;43.512;5.220;2023-02-01T08:15:25;1.60;;;1.50;;
65706;SDS011;52423;43.512;5.220;2023-02-01T08:17:52;1.60;;;1.40;;
65706;SDS011;52423;43.512;5.220;2023-02-01T08:20:19;5.53;;;1.35;;
65706;SDS011;52423;43.512;5.220;2023-02-01T08:22:47;3.35;;;1.75;;
65706;SDS011;52423;43.512;5.220;2023-02-01T08:25:13;4.30;;;1.55;;
65706;SDS011;52423;43.512;5.220;2023-02-01T08:27:38;2.47;;;1.60;;
65706;SDS011;52423;43.512;5.220;2023-02-01T08:30:04;3.72;;;1.50;;
65706;SDS011;52423;43.512;5.220;2023-02-01T08:32:32;3.33;;;1.75;;
65706;SDS011;52423;43.512;5.220;2023-02-01T08:34:58;2.53;;;1.40;;
65706;SDS011;52423;43.512;5.220;2023-02-01T08:37:24;2.63;;;1.23;;
65706;SDS011;52423;43.512;5.220;2023-02-01T08:39:49;2.08;;;1.95;;
65706;SDS011;52423;43.512;5.220;2023-02-01T08:42:15;1.67;;;1.58;;
65706;SDS011;52423;43.512;5.220;2023-02-01T08:45:00;2.72;;;1.70;;
65706;SDS011;52423;43.512;5.220;2023-02-01T08:47:26;3.15;;;1.70;;
65706;SDS011;52423;43.512;5.220;2023-02-01T08:49:51;2.92;;;1.60;;
65706;SDS011;52423;43.512;5.220;2023-02-01T08:52:18;3.28;;;1.90;;
65706;SDS011;52423;43.512;5.220;2023-02-01T08:54:43;1.75;;;1.65;;
65706;SDS011;52423;43.512;5.220;2023-02-01T08:57:09;3.28;;;1.70;;
65706;SDS011;52423;43.512;5.220;2023-02-01T08:59:35;1.83;;;1.55;;
65706;SDS011;52423;43.512;5.220;2023-02-01T09:02:00;1.70;;;1.48;;
65706;SDS011;52423;43.512;5.220;2023-02-01T09:04:26;2.92;;;1.75;;
65706;SDS011;52423;43.512;5.220;2023-02-01T09:06:51;7.82;;;2.10;;
65706;SDS011;52423;43.512;5.220;2023-02-01T09:09:17;2.72;;;1.55;;
65706;SDS011;52423;43.512;5.220;2023-02-01T09:11:42;4.03;;;1.70;;
65706;SDS011;52423;43.512;5.220;2023-02-01T09:14:09;3.80;;;1.60;;
65706;SDS011;52423;43.512;5.220;2023-02-01T09:16:34;3.58;;;1.67;;
65706;SDS011;52423;43.512;5.220;2023-02-01T09:19:00;5.43;;;2.00;;
65706;SDS011;52423;43.512;5.220;2023-02-01T09:21:25;4.95;;;1.80;;
65706;SDS011;52423;43.512;5.220;2023-02-01T09:23:51;5.32;;;1.60;;
65706;SDS011;52423;43.512;5.220;2023-02-01T09:26:16;4.45;;;1.92;;
65706;SDS011;52423;43.512;5.220;2023-02-01T09:28:42;6.20;;;1.98;;
65706;SDS011;52423;43.512;5.220;2023-02-01T09:31:07;1.42;;;1.33;;
65706;SDS011;52423;43.512;5.220;2023-02-01T09:33:33;4.40;;;1.30;;
65706;SDS011;52423;43.512;5.220;2023-02-01T09:35:59;3.67;;;1.73;;
65706;SDS011;52423;43.512;5.220;2023-02-01T09:38:26;1.98;;;1.73;;
65706;SDS011;52423;43.512;5.220;2023-02-01T09:40:52;2.58;;;1.30;;
65706;SDS011;52423;43.512;5.220;2023-02-01T09:43:21;4.40;;;1.65;;
65706;SDS011;52423;43.512;5.220;2023-02-01T09:48:54;4.32;;;1.80;;
65706;SDS011;52423;43.512;5.220;2023-02-01T09:51:28;1.98;;;1.70;;
65706;SDS011;52423;43.512;5.220;2023-02-01T09:54:11;5.57;;;1.58;;
65706;SDS011;52423;43.512;5.220;2023-02-01T10:01:48;1.83;;;1.40;;
65706;SDS011;52423;43.512;5.220;2023-02-01T10:04:14;1.73;;;1.60;;
65706;SDS011;52423;43.512;5.220;2023-02-01T10:06:48;8.63;;;1.65;;
65706;SDS011;52423;43.512;5.220;2023-02-01T10:14:46;1.35;;;1.25;;
65706;SDS011;52423;43.512;5.220;2023-02-01T10:20:22;2.42;;;1.00;;
65706;SDS011;52423;43.512;5.220;2023-02-01T10:25:36;6.57;;;1.35;;
65706;SDS011;52423;43.512;5.220;2023-02-01T10:28:25;1.10;;;1.10;;
65706;SDS011;52423;43.512;5.220;2023-02-01T10:30:52;2.60;;;1.55;;
65706;SDS011;52423;43.512;5.220;2023-02-01T10:33:25;1.50;;;1.40;;
65706;SDS011;52423;43.512;5.220;2023-02-01T10:38:35;2.15;;;1.40;;
65706;SDS011;52423;43.512;5.220;2023-02-01T10:41:03;3.72;;;1.35;;
65706;SDS011;52423;43.512;5.220;2023-02-01T10:43:38;1.70;;;1.20;;
65706;SDS011;52423;43.512;5.220;2023-02-01T10:46:04;1.27;;;1.17;;
65706;SDS011;52423;43.512;5.220;2023-02-01T10:48:31;4.55;;;1.50;;
65706;SDS011;52423;43.512;5.220;2023-02-01T10:51:00;1.58;;;1.25;;
65706;SDS011;52423;43.512;5.220;2023-02-01T10:53:48;2.03;;;1.38;;
65706;SDS011;52423;43.512;5.220;2023-02-01T10:56:21;1.25;;;1.15;;
65706;SDS011;52423;43.512;5.220;2023-02-01T10:58:59;2.53;;;1.00;;
65706;SDS011;52423;43.512;5.220;2023-02-01T11:01:39;3.03;;;1.17;;
65706;SDS011;52423;43.512;5.220;2023-02-01T11:04:12;2.17;;;1.30;;
65706;SDS011;52423;43.512;5.220;2023-02-01T11:06:43;2.95;;;1.45;;
65706;SDS011;52423;43.512;5.220;2023-02-01T11:09:21;2.75;;;1.38;;
65706;SDS011;52423;43.512;5.220;2023-02-01T11:14:35;1.65;;;1.17;;
65706;SDS011;52423;43.512;5.220;2023-02-01T11:19:43;1.15;;;1.08;;
65706;SDS011;52423;43.512;5.220;2023-02-01T11:22:20;1.27;;;1.17;;
65706;SDS011;52423;43.512;5.220;2023-02-01T11:24:46;1.45;;;1.35;;
65706;SDS011;52423;43.512;5.220;2023-02-01T11:27:16;4.57;;;1.42;;
65706;SDS011;52423;43.512;5.220;2023-02-01T11:29:44;3.83;;;1.87;;
65706;SDS011;52423;43.512;5.220;2023-02-01T11:32:13;1.95;;;1.00;;
65706;SDS011;52423;43.512;5.220;2023-02-01T11:37:35;5.15;;;1.05;;
65706;SDS011;52423;43.512;5.220;2023-02-01T11:42:58;3.13;;;1.80;;
65706;SDS011;52423;43.512;5.220;2023-02-01T11:47:53;2.90;;;1.60;;
65706;SDS011;52423;43.512;5.220;2023-02-01T11:53:19;2.03;;;1.40;;
65706;SDS011;52423;43.512;5.220;2023-02-01T12:17:38;4.30;;;1.52;;
65706;SDS011;52423;43.512;5.220;2023-02-01T12:20:22;4.03;;;1.20;;
65706;SDS011;52423;43.512;5.220;2023-02-01T12:34:15;1.77;;;0.90;;
65706;SDS011;52423;43.512;5.220;2023-02-01T12:37:16;1.48;;;0.95;;
65706;SDS011;52423;43.512;5.220;2023-02-01T12:42:45;10.65;;;1.05;;
65706;SDS011;52423;43.512;5.220;2023-02-01T12:48:11;8.32;;;1.10;;
65706;SDS011;52423;43.512;5.220;2023-02-01T12:50:45;6.10;;;0.90;;
65706;SDS011;52423;43.512;5.220;2023-02-01T12:53:18;7.20;;;1.00;;
65706;SDS011;52423;43.512;5.220;2023-02-01T12:55:53;2.03;;;0.70;;
65706;SDS011;52423;43.512;5.220;2023-02-01T12:58:26;3.22;;;0.93;;
65706;SDS011;52423;43.512;5.220;2023-02-01T13:01:06;3.22;;;0.80;;
65706;SDS011;52423;43.512;5.220;2023-02-01T13:03:37;0.73;;;0.73;;
65706;SDS011;52423;43.512;5.220;2023-02-01T13:06:15;3.08;;;0.82;;
65706;SDS011;52423;43.512;5.220;2023-02-01T13:08:48;4.50;;;0.90;;
65706;SDS011;52423;43.512;5.220;2023-02-01T13:11:37;1.92;;;0.77;;
65706;SDS011;52423;43.512;5.220;2023-02-01T13:14:19;1.35;;;0.70;;
65706;SDS011;52423;43.512;5.220;2023-02-01T13:17:00;0.75;;;0.70;;
65706;SDS011;52423;43.512;5.220;2023-02-01T13:19:40;4.72;;;1.10;;
65706;SDS011;52423;43.512;5.220;2023-02-01T13:22:13;1.10;;;1.00;;
65706;SDS011;52423;43.512;5.220;2023-02-01T13:27:16;2.78;;;0.90;;
65706;SDS011;52423;43.512;5.220;2023-02-01T13:29:55;2.22;;;1.20;;
65706;SDS011;52423;43.512;5.220;2023-02-01T13:43:17;1.40;;;0.82;;
65706;SDS011;52423;43.512;5.220;2023-02-01T13:45:52;3.92;;;0.95;;
65706;SDS011;52423;43.512;5.220;2023-02-01T13:48:25;4.10;;;1.00;;
65706;SDS011;52423;43.512;5.220;2023-02-01T13:50:55;1.20;;;0.98;;
65706;SDS011;52423;43.512;5.220;2023-02-01T13:53:33;2.80;;;0.90;;
65706;SDS011;52423;43.512;5.220;2023-02-01T13:58:38;1.15;;;1.05;;
65706;SDS011;52423;43.512;5.220;2023-02-01T14:14:50;3.47;;;1.98;;
65706;SDS011;52423;43.512;5.220;2023-02-01T14:19:25;3.85;;;1.60;;
65706;SDS011;52423;43.512;5.220;2023-02-01T14:22:00;3.53;;;1.23;;
65706;SDS011;52423;43.512;5.220;2023-02-01T14:24:52;4.47;;;1.40;;
65706;SDS011;52423;43.512;5.220;2023-02-01T14:27:20;4.28;;;1.40;;
65706;SDS011;52423;43.512;5.220;2023-02-01T14:30:07;2.60;;;1.15;;
65706;SDS011;52423;43.512;5.220;2023-02-01T14:32:40;0.90;;;0.90;;
65706;SDS011;52423;43.512;5.220;2023-02-01T14:37:45;2.25;;;1.05;;
65706;SDS011;52423;43.512;5.220;2023-02-01T14:42:48;0.80;;;0.80;;
65706;SDS011;52423;43.512;5.220;2023-02-01T14:48:21;2.55;;;1.38;;
65706;SDS011;52423;43.512;5.220;2023-02-01T14:58:40;1.40;;;1.30;;
65706;SDS011;52423;43.512;5.220;2023-02-01T15:01:28;4.57;;;1.55;;
65706;SDS011;52423;43.512;5.220;2023-02-01T15:06:33;1.85;;;1.75;;
65706;SDS011;52423;43.512;5.220;2023-02-01T15:14:40;1.60;;;1.50;;
65706;SDS011;52423;43.512;5.220;2023-02-01T15:17:29;7.28;;;1.50;;
65706;SDS011;52423;43.512;5.220;2023-02-01T15:20:03;1.10;;;1.00;;
65706;SDS011;52423;43.512;5.220;2023-02-01T15:22:37;2.40;;;1.98;;
65706;SDS011;52423;43.512;5.220;2023-02-01T15:25:03;4.50;;;2.00;;
65706;SDS011;52423;43.512;5.220;2023-02-01T15:27:29;1.65;;;1.55;;
65706;SDS011;52423;43.512;5.220;2023-02-01T15:30:12;4.20;;;1.40;;
65706;SDS011;52423;43.512;5.220;2023-02-01T15:32:42;3.08;;;2.08;;
65706;SDS011;52423;43.512;5.220;2023-02-01T15:41:13;7.00;;;1.90;;
65706;SDS011;52423;43.512;5.220;2023-02-01T15:46:32;4.05;;;2.65;;
65706;SDS011;52423;43.512;5.220;2023-02-01T15:49:01;3.03;;;2.08;;
65706;SDS011;52423;43.512;5.220;2023-02-01T15:51:29;2.90;;;2.03;;
65706;SDS011;52423;43.512;5.220;2023-02-01T15:54:01;4.95;;;2.00;;
65706;SDS011;52423;43.512;5.220;2023-02-01T15:56:33;4.15;;;1.90;;
65706;SDS011;52423;43.512;5.220;2023-02-01T15:59:01;4.93;;;2.00;;
65706;SDS011;52423;43.512;5.220;2023-02-01T16:01:29;2.50;;;2.30;;
65706;SDS011;52423;43.512;5.220;2023-02-01T16:04:02;2.55;;;2.00;;
65706;SDS011;52423;43.512;5.220;2023-02-01T16:09:16;3.08;;;1.52;;
65706;SDS011;52423;43.512;5.220;2023-02-01T16:11:57;2.42;;;1.50;;
65706;SDS011;52423;43.512;5.220;2023-02-01T16:14:24;2.40;;;1.58;;
65706;SDS011;52423;43.512;5.220;2023-02-01T16:16:51;5.32;;;2.80;;
65706;SDS011;52423;43.512;5.220;2023-02-01T16:19:18;3.08;;;1.85;;
65706;SDS011;52423;43.512;5.220;2023-02-01T16:21:44;3.42;;;1.90;;
65706;SDS011;52423;43.512;5.220;2023-02-01T16:24:10;3.15;;;2.22;;
65706;SDS011;52423;43.512;5.220;2023-02-01T16:26:35;4.68;;;2.33;;
65706;SDS011;52423;43.512;5.220;2023-02-01T16:29:02;1.50;;;1.40;;
65706;SDS011;52423;43.512;5.220;2023-02-01T16:31:31;4.65;;;2.03;;
65706;SDS011;52423;43.512;5.220;2023-02-01T16:33:59;7.03;;;3.08;;
65706;SDS011;52423;43.512;5.220;2023-02-01T16:36:25;4.80;;;1.92;;
65706;SDS011;52423;43.512;5.220;2023-02-01T16:38:52;9.50;;;1.90;;
65706;SDS011;52423;43.512;5.220;2023-02-01T16:41:18;3.00;;;2.40;;
65706;SDS011;52423;43.512;5.220;2023-02-01T16:43:45;4.97;;;1.45;;
65706;SDS011;52423;43.512;5.220;2023-02-01T16:46:15;1.90;;;1.77;;
65706;SDS011;52423;43.512;5.220;2023-02-01T16:48:45;1.75;;;1.58;;
65706;SDS011;52423;43.512;5.220;2023-02-01T16:51:16;2.03;;;1.48;;
65706;SDS011;52423;43.512;5.220;2023-02-01T16:53:42;4.15;;;1.70;;
65706;SDS011;52423;43.512;5.220;2023-02-01T16:56:18;2.75;;;1.70;;
65706;SDS011;52423;43.512;5.220;2023-02-01T16:58:46;6.80;;;2.03;;
65706;SDS011;52423;43.512;5.220;2023-02-01T17:01:12;6.72;;;2.00;;
65706;SDS011;52423;43.512;5.220;2023-02-01T17:03:39;2.85;;;2.20;;
65706;SDS011;52423;43.512;5.220;2023-02-01T17:06:06;2.30;;;2.00;;
65706;SDS011;52423;43.512;5.220;2023-02-01T17:08:35;4.43;;;2.67;;
65706;SDS011;52423;43.512;5.220;2023-02-01T17:11:03;2.63;;;2.13;;
65706;SDS011;52423;43.512;5.220;2023-02-01T17:13:29;2.92;;;2.25;;
65706;SDS011;52423;43.512;5.220;2023-02-01T17:16:03;2.50;;;2.30;;
65706;SDS011;52423;43.512;5.220;2023-02-01T17:18:35;3.10;;;2.38;;
65706;SDS011;52423;43.512;5.220;2023-02-01T17:21:01;3.55;;;1.67;;
65706;SDS011;52423;43.512;5.220;2023-02-01T17:23:28;2.10;;;1.90;;
65706;SDS011;52423;43.512;5.220;2023-02-01T17:25:55;4.72;;;4.00;;
65706;SDS011;52423;43.512;5.220;2023-02-01T17:28:22;8.32;;;2.50;;
65706;SDS011;52423;43.512;5.220;2023-02-01T17:30:48;2.35;;;1.80;;
65706;SDS011;52423;43.512;5.220;2023-02-01T17:33:17;12.77;;;2.13;;
65706;SDS011;52423;43.512;5.220;2023-02-01T17:35:53;3.17;;;2.45;;
65706;SDS011;52423;43.512;5.220;2023-02-01T17:38:19;7.47;;;5.88;;
65706;SDS011;52423;43.512;5.220;2023-02-01T17:40:44;1.85;;;1.70;;
65706;SDS011;52423;43.512;5.220;2023-02-01T17:43:14;8.18;;;1.85;;
65706;SDS011;52423;43.512;5.220;2023-02-01T17:45:48;2.42;;;2.05;;
65706;SDS011;52423;43.512;5.220;2023-02-01T17:48:23;4.05;;;2.65;;
65706;SDS011;52423;43.512;5.220;2023-02-01T17:50:49;3.95;;;1.67;;
65706;SDS011;52423;43.512;5.220;2023-02-01T17:53:18;9.30;;;3.03;;
65706;SDS011;52423;43.512;5.220;2023-02-01T17:55:48;7.32;;;2.10;;
65706;SDS011;52423;43.512;5.220;2023-02-01T17:58:14;10.48;;;6.65;;
65706;SDS011;52423;43.512;5.220;2023-02-01T18:00:41;7.25;;;2.75;;
65706;SDS011;52423;43.512;5.220;2023-02-01T18:03:13;4.72;;;2.42;;
65706;SDS011;52423;43.512;5.220;2023-02-01T18:05:50;5.95;;;2.22;;
65706;SDS011;52423;43.512;5.220;2023-02-01T18:08:27;8.35;;;6.28;;
65706;SDS011;52423;43.512;5.220;2023-02-01T18:10:55;7.60;;;4.35;;